Time,TemperatureF,DewpointF,PressureIn,WindDirection,WindDirectionDegrees,WindSpeedMPH,WindSpeedGustMPH,Humidity,HourlyPrecipIn,Conditions,Clouds,dailyrainin,SolarRadiationWatts/m^2,SoftwareType,DateUTC
2013-03-21 00:22:00,14.0,-2.0,-100.00,NE,51,5.0,9.0,47,0.00,,,0.00,0.000000,,2013-03-21 08:22:00,
2013-03-21 00:33:00,14.0,-2.0,-100.00,NE,51,5.0,9.0,47,0.00,,,0.00,0.000000,,2013-03-21 08:33:00,
2013-03-21 00:42:00,14.0,-2.0,-100.00,NE,51,5.0,9.0,47,0.00,,,0.00,0.000000,,2013-03-21 08:42:00,
2013-03-21 00:52:00,14.0,-2.0,-100.00,NE,51,5.0,9.0,47,0.00,,,0.00,0.000000,,2013-03-21 08:52:00,
2013-03-21 01:21:00,13.0,-6.0,-100.00,ENE,57,4.0,8.0,42,0.00,,,0.00,0.000000,,2013-03-21 09:21:00,
2013-03-21 01:33:00,13.0,-6.0,-100.00,ENE,57,4.0,8.0,42,0.00,,,0.00,0.000000,,2013-03-21 09:33:00,
2013-03-21 01:43:00,13.0,-6.0,-100.00,ENE,57,4.0,8.0,42,0.00,,,0.00,0.000000,,2013-03-21 09:43:00,
2013-03-21 01:53:00,13.0,-6.0,-100.00,ENE,57,4.0,8.0,42,0.00,,,0.00,0.000000,,2013-03-21 09:53:00,
2013-03-21 02:22:00,12.0,-8.0,-100.00,NE,36,3.0,6.0,39,0.00,,,0.00,0.000000,,2013-03-21 10:22:00,
2013-03-21 02:33:00,12.0,-8.0,-100.00,NE,36,3.0,6.0,39,0.00,,,0.00,0.000000,,2013-03-21 10:33:00,
2013-03-21 02:42:00,12.0,-8.0,-100.00,NE,36,3.0,6.0,39,0.00,,,0.00,0.000000,,2013-03-21 10:42:00,
2013-03-21 02:52:00,12.0,-8.0,-100.00,NE,36,3.0,6.0,39,0.00,,,0.00,0.000000,,2013-03-21 10:52:00,
2013-03-21 03:22:00,12.0,-6.0,-100.00,NE,41,3.0,5.0,44,0.00,,,0.00,0.000000,,2013-03-21 11:22:00,
2013-03-21 03:33:00,12.0,-6.0,-100.00,NE,41,3.0,5.0,44,0.00,,,0.00,0.000000,,2013-03-21 11:33:00,
2013-03-21 03:42:00,12.0,-6.0,-100.00,NE,41,3.0,5.0,44,0.00,,,0.00,0.000000,,2013-03-21 11:42:00,
2013-03-21 03:52:00,12.0,-6.0,-100.00,NE,41,3.0,5.0,44,0.00,,,0.00,0.000000,,2013-03-21 11:52:00,
2013-03-21 04:22:00,13.0,-5.0,-100.00,NE,41,4.0,6.0,44,0.00,,,0.00,0.000000,,2013-03-21 12:22:00,
2013-03-21 04:32:00,13.0,-5.0,-100.00,NE,41,4.0,6.0,44,0.00,,,0.00,0.000000,,2013-03-21 12:32:00,
2013-03-21 04:42:00,13.0,-5.0,-100.00,NE,41,4.0,6.0,44,0.00,,,0.00,0.000000,,2013-03-21 12:42:00,
2013-03-21 04:52:00,13.0,-5.0,-100.00,NE,41,4.0,6.0,44,0.00,,,0.00,0.000000,,2013-03-21 12:52:00,
2013-03-21 05:22:00,12.0,-5.0,-100.00,NE,35,3.0,5.0,45,0.00,,,0.00,0.000000,,2013-03-21 13:22:00,
2013-03-21 05:32:00,12.0,-5.0,-100.00,NE,35,3.0,5.0,45,0.00,,,0.00,0.000000,,2013-03-21 13:32:00,
2013-03-21 05:42:00,12.0,-5.0,-100.00,NE,35,3.0,5.0,45,0.00,,,0.00,0.000000,,2013-03-21 13:42:00,
2013-03-21 05:52:00,12.0,-5.0,-100.00,NE,35,3.0,5.0,45,0.00,,,0.00,0.000000,,2013-03-21 13:52:00,
2013-03-21 06:21:00,12.0,-3.0,-100.00,NE,43,3.0,4.0,50,0.00,,,0.00,0.000000,,2013-03-21 14:21:00,
2013-03-21 06:32:00,12.0,-3.0,-100.00,NE,43,3.0,4.0,50,0.00,,,0.00,0.000000,,2013-03-21 14:32:00,
2013-03-21 06:42:00,12.0,-3.0,-100.00,NE,43,3.0,4.0,50,0.00,,,0.00,0.000000,,2013-03-21 14:42:00,
2013-03-21 06:51:00,12.0,-3.0,-100.00,NE,43,3.0,4.0,50,0.00,,,0.00,0.000000,,2013-03-21 14:51:00,
2013-03-21 07:22:00,11.0,-5.0,-100.00,NE,41,3.0,5.0,48,0.00,,,0.00,0.000000,,2013-03-21 15:22:00,
2013-03-21 07:32:00,11.0,-5.0,-100.00,NE,41,3.0,5.0,48,0.00,,,0.00,0.000000,,2013-03-21 15:32:00,
2013-03-21 07:42:00,11.0,-5.0,-100.00,NE,41,3.0,5.0,48,0.00,,,0.00,0.000000,,2013-03-21 15:42:00,
2013-03-21 07:52:00,11.0,-5.0,-100.00,NE,41,3.0,5.0,48,0.00,,,0.00,0.000000,,2013-03-21 15:52:00,
2013-03-21 08:23:00,11.0,-5.0,-100.00,ESE,117,2.0,5.0,47,0.00,,,0.00,1.000000,,2013-03-21 16:23:00,
2013-03-21 08:33:00,11.0,-5.0,-100.00,ESE,117,2.0,5.0,47,0.00,,,0.00,1.000000,,2013-03-21 16:33:00,
2013-03-21 08:42:00,11.0,-5.0,-100.00,ESE,117,2.0,5.0,47,0.00,,,0.00,1.000000,,2013-03-21 16:42:00,
2013-03-21 08:52:00,11.0,-5.0,-100.00,ESE,117,2.0,5.0,47,0.00,,,0.00,1.000000,,2013-03-21 16:52:00,
2013-03-21 09:23:00,13.0,2.0,-100.00,East,92,3.0,6.0,62,0.00,,,0.00,16.000000,,2013-03-21 17:23:00,
2013-03-21 09:32:00,13.0,2.0,-100.00,East,92,3.0,6.0,62,0.00,,,0.00,16.000000,,2013-03-21 17:32:00,
2013-03-21 09:42:00,13.0,2.0,-100.00,East,92,3.0,6.0,62,0.00,,,0.00,16.000000,,2013-03-21 17:42:00,
2013-03-21 09:52:00,13.0,2.0,-100.00,East,92,3.0,6.0,62,0.00,,,0.00,16.000000,,2013-03-21 17:52:00,
2013-03-21 10:22:00,17.0,2.0,-100.00,NE,51,2.0,6.0,51,0.00,,,0.00,104.000000,,2013-03-21 18:22:00,
2013-03-21 10:32:00,17.0,2.0,-100.00,NE,51,2.0,6.0,51,0.00,,,0.00,104.000000,,2013-03-21 18:32:00,
2013-03-21 10:42:00,17.0,2.0,-100.00,NE,51,2.0,6.0,51,0.00,,,0.00,104.000000,,2013-03-21 18:42:00,
2013-03-21 10:52:00,17.0,2.0,-100.00,NE,51,2.0,6.0,51,0.00,,,0.00,104.000000,,2013-03-21 18:52:00,
2013-03-21 11:22:00,19.0,2.0,-100.00,SSW,209,5.0,7.0,46,0.00,,,0.00,261.000000,,2013-03-21 19:22:00,
2013-03-21 11:32:00,19.0,2.0,-100.00,SSW,209,5.0,7.0,46,0.00,,,0.00,261.000000,,2013-03-21 19:32:00,
2013-03-21 11:42:00,19.0,2.0,-100.00,SSW,209,5.0,7.0,46,0.00,,,0.00,261.000000,,2013-03-21 19:42:00,
2013-03-21 11:52:00,19.0,2.0,-100.00,SSW,209,5.0,7.0,46,0.00,,,0.00,261.000000,,2013-03-21 19:52:00,
2013-03-21 12:22:00,25.0,5.0,-100.00,NW,310,3.0,6.0,42,0.00,,,0.00,389.000000,,2013-03-21 20:22:00,
2013-03-21 12:33:00,25.0,5.0,-100.00,NW,310,3.0,6.0,42,0.00,,,0.00,389.000000,,2013-03-21 20:33:00,
2013-03-21 12:42:00,25.0,5.0,-100.00,NW,310,3.0,6.0,42,0.00,,,0.00,389.000000,,2013-03-21 20:42:00,
2013-03-21 12:52:00,25.0,5.0,-100.00,NW,310,3.0,6.0,42,0.00,,,0.00,389.000000,,2013-03-21 20:52:00,
2013-03-21 13:22:00,24.0,8.0,-100.00,SW,233,5.0,7.0,50,0.00,,,0.00,467.000000,,2013-03-21 21:22:00,
2013-03-21 13:32:00,24.0,8.0,-100.00,SW,233,5.0,7.0,50,0.00,,,0.00,467.000000,,2013-03-21 21:32:00,
2013-03-21 13:43:00,24.0,8.0,-100.00,SW,233,5.0,7.0,50,0.00,,,0.00,467.000000,,2013-03-21 21:43:00,
2013-03-21 13:52:00,24.0,8.0,-100.00,SW,233,5.0,7.0,50,0.00,,,0.00,467.000000,,2013-03-21 21:52:00,
2013-03-21 14:23:00,27.0,8.0,-100.00,North,4,3.0,7.0,43,0.00,,,0.00,514.000000,,2013-03-21 22:23:00,
2013-03-21 14:33:00,27.0,8.0,-100.00,North,4,3.0,7.0,43,0.00,,,0.00,514.000000,,2013-03-21 22:33:00,
2013-03-21 14:42:00,27.0,8.0,-100.00,North,4,3.0,7.0,43,0.00,,,0.00,514.000000,,2013-03-21 22:42:00,
2013-03-21 14:52:00,27.0,8.0,-100.00,North,4,3.0,7.0,43,0.00,,,0.00,514.000000,,2013-03-21 22:52:00,
2013-03-21 15:22:00,28.0,7.0,-100.00,NNW,327,5.0,7.0,40,0.00,,,0.00,502.000000,,2013-03-21 23:22:00,
2013-03-21 15:32:00,28.0,7.0,-100.00,NNW,327,5.0,7.0,40,0.00,,,0.00,502.000000,,2013-03-21 23:32:00,
2013-03-21 15:42:00,28.0,7.0,-100.00,NNW,327,5.0,7.0,40,0.00,,,0.00,502.000000,,2013-03-21 23:42:00,
2013-03-21 15:52:00,28.0,7.0,-100.00,NNW,327,5.0,7.0,40,0.00,,,0.00,502.000000,,2013-03-21 23:52:00,
2013-03-21 16:22:00,29.0,7.0,-100.00,NW,318,3.0,7.0,39,0.00,,,0.00,472.000000,,2013-03-22 00:22:00,
2013-03-21 16:31:00,29.0,7.0,-100.00,NW,318,3.0,7.0,39,0.00,,,0.00,472.000000,,2013-03-22 00:31:00,
2013-03-21 16:42:00,29.0,7.0,-100.00,NW,318,3.0,7.0,39,0.00,,,0.00,472.000000,,2013-03-22 00:42:00,
2013-03-21 16:52:00,29.0,7.0,-100.00,NW,318,3.0,7.0,39,0.00,,,0.00,472.000000,,2013-03-22 00:52:00,
2013-03-21 17:22:00,24.0,8.0,-100.00,SW,225,4.0,7.0,50,0.00,,,0.00,277.000000,,2013-03-22 01:22:00,
2013-03-21 17:32:00,24.0,8.0,-100.00,SW,225,4.0,7.0,50,0.00,,,0.00,277.000000,,2013-03-22 01:32:00,
2013-03-21 17:42:00,24.0,8.0,-100.00,SW,225,4.0,7.0,50,0.00,,,0.00,277.000000,,2013-03-22 01:42:00,
2013-03-21 17:52:00,24.0,8.0,-100.00,SW,225,4.0,7.0,50,0.00,,,0.00,277.000000,,2013-03-22 01:52:00,
2013-03-21 18:22:00,25.0,7.0,-100.00,WSW,240,3.0,6.0,46,0.00,,,0.00,236.000000,,2013-03-22 02:22:00,
2013-03-21 18:32:00,25.0,7.0,-100.00,WSW,240,3.0,6.0,46,0.00,,,0.00,236.000000,,2013-03-22 02:32:00,
2013-03-21 18:42:00,25.0,7.0,-100.00,WSW,240,3.0,6.0,46,0.00,,,0.00,236.000000,,2013-03-22 02:42:00,
2013-03-21 18:51:00,25.0,7.0,-100.00,WSW,240,3.0,6.0,46,0.00,,,0.00,236.000000,,2013-03-22 02:51:00,
2013-03-21 19:22:00,23.0,7.0,-100.00,North,3,3.0,5.0,49,0.00,,,0.00,137.000000,,2013-03-22 03:22:00,
2013-03-21 19:33:00,23.0,7.0,-100.00,North,3,3.0,5.0,49,0.00,,,0.00,137.000000,,2013-03-22 03:33:00,
2013-03-21 19:42:00,23.0,7.0,-100.00,North,3,3.0,5.0,49,0.00,,,0.00,137.000000,,2013-03-22 03:42:00,
2013-03-21 19:52:00,23.0,7.0,-100.00,North,3,3.0,5.0,49,0.00,,,0.00,137.000000,,2013-03-22 03:52:00,
2013-03-21 20:23:00,20.0,3.0,-100.00,North,3,3.0,5.0,46,0.00,,,0.00,42.000000,,2013-03-22 04:23:00,
2013-03-21 20:32:00,20.0,3.0,-100.00,North,3,3.0,5.0,46,0.00,,,0.00,42.000000,,2013-03-22 04:32:00,
2013-03-21 20:42:00,20.0,3.0,-100.00,North,3,3.0,5.0,46,0.00,,,0.00,42.000000,,2013-03-22 04:42:00,
2013-03-21 20:52:00,20.0,3.0,-100.00,North,3,3.0,5.0,46,0.00,,,0.00,42.000000,,2013-03-22 04:52:00,
2013-03-21 21:22:00,19.0,1.0,-100.00,NE,44,3.0,5.0,44,0.00,,,0.00,3.000000,,2013-03-22 05:22:00,
2013-03-21 21:32:00,19.0,1.0,-100.00,NE,44,3.0,5.0,44,0.00,,,0.00,3.000000,,2013-03-22 05:32:00,
2013-03-21 21:42:00,19.0,1.0,-100.00,NE,44,3.0,5.0,44,0.00,,,0.00,3.000000,,2013-03-22 05:42:00,
2013-03-21 21:52:00,19.0,1.0,-100.00,NE,44,3.0,5.0,44,0.00,,,0.00,3.000000,,2013-03-22 05:52:00,
2013-03-21 22:22:00,22.0,2.0,-100.00,NW,309,2.0,12.0,42,0.00,,,0.00,0.000000,,2013-03-22 06:22:00,
2013-03-21 22:32:00,22.0,2.0,-100.00,NW,309,2.0,12.0,42,0.00,,,0.00,0.000000,,2013-03-22 06:32:00,
2013-03-21 22:42:00,22.0,2.0,-100.00,NW,309,2.0,12.0,42,0.00,,,0.00,0.000000,,2013-03-22 06:42:00,
2013-03-21 22:52:00,22.0,2.0,-100.00,NW,309,2.0,12.0,42,0.00,,,0.00,0.000000,,2013-03-22 06:52:00,
2013-03-21 23:22:00,22.0,3.0,-100.00,ENE,59,7.0,12.0,43,0.00,,,0.00,0.000000,,2013-03-22 07:22:00,
2013-03-21 23:32:00,22.0,3.0,-100.00,ENE,59,7.0,12.0,43,0.00,,,0.00,0.000000,,2013-03-22 07:32:00,
2013-03-21 23:42:00,22.0,3.0,-100.00,ENE,59,7.0,12.0,43,0.00,,,0.00,0.000000,,2013-03-22 07:42:00,
2013-03-21 23:52:00,22.0,3.0,-100.00,ENE,59,7.0,12.0,43,0.00,,,0.00,0.000000,,2013-03-22 07:52:00,